Time;durP1;ratioP1;P1;durP2;ratioP2;P2;SDS_P1;SDS_P2;PMS_P1;PMS_P2;Temp;Humidity;BMP_temperature;BMP_pressure;BME280_temperature;BME280_humidity;BME280_pressure;Samples;Min_cycle;Max_cycle;Signal;HPM_P1;HPM_P2
2022/06/10 00:00:32;;;;;;;9.80;8.10;;;;;;;20.72;71.03;99039.56;4446949;32;33848;-64
2022/06/10 00:03:00;;;;;;;10.13;8.35;;;;;;;20.82;71.64;99039.22;4445735;32;34539;-63
2022/06/10 00:05:30;;;;;;;11.15;8.77;;;;;;;20.89;70.98;99042.84;4444127;32;34376;-63
2022/06/10 00:07:58;;;;;;;11.52;8.73;;;;;;;20.92;70.86;99042.44;4449205;32;34998;-64
2022/06/10 00:10:27;;;;;;;11.38;8.68;;;;;;;21.12;69.72;99048.00;4447485;32;33819;-63
2022/06/10 00:12:54;;;;;;;12.32;8.85;;;;;;;20.47;72.67;99047.28;4445792;32;34026;-63
2022/06/10 00:15:22;;;;;;;12.20;8.57;;;;;;;20.37;73.17;99044.06;4448165;32;33378;-64
2022/06/10 00:17:50;;;;;;;13.02;8.50;;;;;;;20.48;72.37;99038.94;4447231;32;34974;-64
2022/06/10 00:20:20;;;;;;;13.40;8.93;;;;;;;20.30;73.47;99043.16;4443973;32;33971;-61
2022/06/10 00:22:47;;;;;;;11.68;8.98;;;;;;;20.13;74.08;99039.88;4450917;32;32519;-62
2022/06/10 00:25:17;;;;;;;15.07;9.07;;;;;;;19.46;77.00;99043.63;4448506;32;34902;-60
2022/06/10 00:27:45;;;;;;;11.70;9.05;;;;;;;19.56;76.96;99044.19;4450265;32;34725;-63
2022/06/10 00:30:14;;;;;;;11.73;8.90;;;;;;;20.10;74.56;99046.50;4444642;32;34284;-62
2022/06/10 00:32:42;;;;;;;11.05;8.85;;;;;;;19.70;75.83;99051.47;4448093;32;34949;-63
2022/06/10 00:35:10;;;;;;;11.05;9.15;;;;;;;20.01;74.52;99051.22;4446098;32;33155;-63
2022/06/10 00:37:38;;;;;;;11.07;9.55;;;;;;;19.49;76.46;99051.41;4451365;32;35107;-62
2022/06/10 00:40:08;;;;;;;11.07;9.27;;;;;;;19.85;75.63;99050.63;4449542;32;34388;-65
2022/06/10 00:42:37;;;;;;;11.23;10.02;;;;;;;20.15;73.70;99051.34;4450698;32;33336;-61
2022/06/10 00:45:27;;;;;;;12.05;9.30;;;;;;;20.03;74.25;99056.44;4450712;32;33723;-63
2022/06/10 00:47:55;;;;;;;10.98;9.20;;;;;;;19.88;74.86;99058.38;4448139;32;33706;-62
2022/06/10 00:50:29;;;;;;;12.18;8.95;;;;;;;20.17;73.95;99066.44;4448984;32;34142;-61
2022/06/10 00:53:00;;;;;;;12.55;10.68;;;;;;;20.25;73.36;99065.47;4444857;32;33756;-61
2022/06/10 00:55:29;;;;;;;12.15;9.75;;;;;;;20.11;74.01;99075.34;4450070;32;33448;-62
2022/06/10 00:58:00;;;;;;;13.25;9.70;;;;;;;19.92;74.46;99059.69;4448380;32;33782;-61
2022/06/10 01:00:28;;;;;;;10.63;9.32;;;;;;;19.69;75.47;99065.25;4447351;32;33431;-64
2022/06/10 01:02:56;;;;;;;11.02;9.73;;;;;;;20.11;74.21;99067.19;4449235;32;32294;-63
2022/06/10 01:05:25;;;;;;;11.35;9.75;;;;;;;20.48;72.25;99070.69;4447921;32;33573;-63
2022/06/10 01:08:07;;;;;;;12.13;9.65;;;;;;;20.55;72.03;99060.78;4453559;32;33699;-64
2022/06/10 01:10:48;;;;;;;12.13;9.93;;;;;;;20.87;70.54;99061.25;4449513;32;33903;-64
2022/06/10 01:13:18;;;;;;;14.13;9.68;;;;;;;20.50;71.92;99070.50;4447727;32;34000;-63
2022/06/10 01:15:53;;;;;;;12.25;10.30;;;;;;;20.10;73.55;99075.56;4445823;32;33432;-62
2022/06/10 01:18:28;;;;;;;13.88;9.85;;;;;;;20.18;73.61;99070.81;4448045;32;33955;-64
2022/06/10 01:21:34;;;;;;;11.77;9.85;;;;;;;20.29;72.80;99072.22;4450146;32;33891;-62
2022/06/10 01:24:39;;;;;;;13.10;11.18;;;;;;;19.77;74.21;99076.84;4446343;32;33709;-63
2022/06/10 01:27:48;;;;;;;12.77;10.57;;;;;;;19.49;75.99;99081.25;4448164;32;33705;-63
2022/06/10 01:30:46;;;;;;;13.70;11.45;;;;;;;19.64;75.87;99098.38;4444941;32;34011;-61
2022/06/10 01:33:17;;;;;;;14.43;11.60;;;;;;;20.07;73.86;99084.94;4448101;32;33568;-64
2022/06/10 01:36:02;;;;;;;12.25;10.95;;;;;;;19.69;75.36;99089.69;4443583;32;33752;-64
2022/06/10 01:38:38;;;;;;;19.75;11.12;;;;;;;19.60;75.25;99086.19;4445142;32;34197;-62
2022/06/10 01:41:25;;;;;;;12.82;10.95;;;;;;;20.28;73.01;99086.81;4444158;32;33300;-64
2022/06/10 01:44:14;;;;;;;12.57;11.07;;;;;;;20.12;73.39;99085.19;4447322;32;34080;-62
2022/06/10 01:47:08;;;;;;;13.05;10.45;;;;;;;19.88;73.76;99085.53;4444766;32;33542;-62
2022/06/10 01:49:43;;;;;;;12.10;10.55;;;;;;;20.03;74.00;99094.47;4445057;32;32848;-62
2022/06/10 01:52:19;;;;;;;13.30;11.88;;;;;;;20.08;73.35;99100.19;4442355;32;33833;-62
2022/06/10 01:55:13;;;;;;;14.25;12.10;;;;;;;19.32;77.05;99102.28;4441740;32;33490;-62
2022/06/10 01:57:53;;;;;;;14.23;11.12;;;;;;;20.04;73.27;99096.19;4441966;32;33586;-62
2022/06/10 02:00:24;;;;;;;16.20;11.82;;;;;;;20.17;72.66;99095.47;4444682;32;32940;-61
2022/06/10 02:03:08;;;;;;;18.00;11.85;;;;;;;19.88;73.82;99108.09;4442462;32;33977;-61
2022/06/10 02:05:40;;;;;;;15.32;11.12;;;;;;;20.20;72.32;99111.41;4446456;32;33911;-62
2022/06/10 02:08:16;;;;;;;12.77;10.95;;;;;;;19.87;73.60;99132.72;4443392;32;32708;-61
2022/06/10 02:10:51;;;;;;;15.43;12.18;;;;;;;20.38;72.13;99143.56;4442840;32;32203;-61
2022/06/10 02:13:23;;;;;;;14.98;10.73;;;;;;;20.79;70.19;99156.56;4444827;32;35770;-62
2022/06/10 02:15:53;;;;;;;14.40;11.48;;;;;;;20.47;71.10;99147.84;4444982;32;33895;-61
2022/06/10 02:18:26;;;;;;;14.35;11.55;;;;;;;20.80;69.74;99142.78;4443611;32;33599;-62
2022/06/10 02:20:58;;;;;;;15.15;12.35;;;;;;;21.13;68.58;99139.50;4444958;32;32958;-62
2022/06/10 02:23:30;;;;;;;14.07;12.68;;;;;;;20.41;71.01;99145.91;4446520;32;33421;-62
2022/06/10 02:25:59;;;;;;;13.98;11.85;;;;;;;20.44;70.89;99157.22;4446455;32;35014;-63
2022/06/10 02:28:31;;;;;;;13.52;12.13;;;;;;;20.45;70.85;99148.06;4440100;32;34517;-60
2022/06/10 02:31:16;;;;;;;15.95;12.30;;;;;;;20.20;71.85;99158.44;4443373;32;33686;-61
2022/06/10 02:33:44;;;;;;;16.35;11.88;;;;;;;19.93;73.22;99169.97;4441712;32;34815;-63
2022/06/10 02:36:26;;;;;;;14.07;11.82;;;;;;;19.76;73.87;99191.06;4445450;32;33785;-61
2022/06/10 02:39:08;;;;;;;16.62;12.98;;;;;;;20.14;72.47;99193.66;4439221;32;32945;-61
2022/06/10 02:41:50;;;;;;;18.10;13.15;;;;;;;20.48;71.35;99206.59;4442857;32;33581;-61
2022/06/10 02:44:38;;;;;;;14.20;12.13;;;;;;;20.31;71.95;99200.56;4445934;32;35469;-62
2022/06/10 02:47:11;;;;;;;17.48;12.52;;;;;;;20.71;70.23;99203.78;4443832;32;34848;-64
2022/06/10 02:49:39;;;;;;;15.93;13.40;;;;;;;20.88;70.11;99191.59;4444519;32;32778;-63
2022/06/10 02:52:08;;;;;;;15.57;13.23;;;;;;;20.14;73.65;99190.97;4447845;32;34544;-64
2022/06/10 02:54:38;;;;;;;16.23;14.40;;;;;;;19.96;74.23;99197.59;4447267;32;33576;-64
2022/06/10 03:03:31;;;;;;;17.50;13.75;;;;;;;20.60;71.73;99220.59;4448171;32;33466;-64
2022/06/10 03:06:15;;;;;;;18.85;15.07;;;;;;;20.36;72.54;99227.19;4448664;32;33773;-63
2022/06/10 03:08:50;;;;;;;15.63;12.77;;;;;;;20.48;72.06;99225.63;4442125;32;33937;-61
2022/06/10 03:11:28;;;;;;;14.57;12.93;;;;;;;21.00;69.66;99202.81;4445858;32;34543;-63
2022/06/10 03:14:07;;;;;;;17.58;13.52;;;;;;;20.78;70.29;99198.41;4448796;32;33287;-62
2022/06/10 03:17:02;;;;;;;14.38;12.88;;;;;;;20.93;69.86;99201.91;4446945;32;33896;-62
2022/06/10 03:19:47;;;;;;;16.12;13.62;;;;;;;20.95;69.99;99205.25;4448509;32;34459;-62
2022/06/10 03:22:32;;;;;;;18.37;13.95;;;;;;;20.66;70.99;99203.50;4447684;32;33800;-62
2022/06/10 03:25:12;;;;;;;15.48;13.85;;;;;;;20.44;72.47;99203.44;4447393;32;33730;-62
2022/06/10 03:28:04;;;;;;;17.05;14.00;;;;;;;20.50;72.02;99201.84;4442283;32;34854;-62
2022/06/10 03:30:35;;;;;;;16.00;13.90;;;;;;;20.28;72.62;99208.25;4445180;32;34120;-64
2022/06/10 03:33:12;;;;;;;18.00;14.45;;;;;;;20.38;72.32;99212.34;4446244;32;33592;-64
2022/06/10 03:35:52;;;;;;;17.08;15.27;;;;;;;20.31;72.72;99216.87;4447299;32;33283;-61
2022/06/10 03:38:20;;;;;;;15.88;14.27;;;;;;;20.37;72.74;99216.09;4448528;32;33890;-64
2022/06/10 03:40:57;;;;;;;18.30;15.05;;;;;;;20.20;73.46;99214.66;4445826;32;34090;-61
2022/06/10 03:43:35;;;;;;;19.87;16.30;;;;;;;20.02;74.38;99215.87;4448234;32;32427;-62
2022/06/10 03:46:13;;;;;;;18.45;16.12;;;;;;;19.89;74.79;99220.28;4447423;32;34263;-68
2022/06/10 03:48:44;;;;;;;17.30;14.38;;;;;;;20.04;74.62;99225.72;4449416;32;33956;-62
2022/06/10 03:51:13;;;;;;;17.23;14.63;;;;;;;20.35;73.33;99234.50;4445156;32;33927;-63
2022/06/10 03:53:41;;;;;;;15.98;14.27;;;;;;;20.25;72.77;99240.19;4444205;32;34030;-63
2022/06/10 03:56:10;;;;;;;16.70;14.90;;;;;;;20.62;71.52;99229.41;4446890;32;33300;-63
2022/06/10 03:58:39;;;;;;;17.15;15.32;;;;;;;19.99;74.47;99221.69;4446785;32;34844;-61
2022/06/10 04:01:06;;;;;;;16.90;15.10;;;;;;;19.84;75.69;99228.12;4448791;32;35068;-62
2022/06/10 04:03:34;;;;;;;18.27;15.52;;;;;;;19.71;75.92;99232.38;4447668;32;33656;-63
2022/06/10 04:06:02;;;;;;;17.45;15.00;;;;;;;19.86;75.24;99235.06;4447474;32;33154;-62
2022/06/10 04:08:50;;;;;;;17.45;13.90;;;;;;;20.11;73.99;99234.81;4447553;32;33164;-63
2022/06/10 04:11:17;;;;;;;17.37;15.57;;;;;;;19.99;74.70;99245.28;4445992;32;34122;-62
2022/06/10 04:13:45;;;;;;;16.77;14.98;;;;;;;20.12;73.71;99252.78;4444481;32;33758;-62
2022/06/10 04:16:13;;;;;;;20.20;14.82;;;;;;;19.31;76.60;99253.41;4447202;32;32147;-62
2022/06/10 04:18:40;;;;;;;17.30;14.32;;;;;;;19.52;76.86;99251.88;4447964;32;34899;-61
2022/06/10 04:21:08;;;;;;;16.83;14.70;;;;;;;19.92;74.88;99239.75;4446814;32;33748;-62
2022/06/10 04:23:36;;;;;;;19.08;14.10;;;;;;;20.23;73.88;99244.16;4448126;32;33935;-63
2022/06/10 04:26:03;;;;;;;16.50;13.93;;;;;;;20.34;73.17;99245.53;4446993;32;33289;-62
2022/06/10 04:28:31;;;;;;;15.45;13.20;;;;;;;20.16;73.90;99248.63;4447024;32;33704;-62
2022/06/10 04:30:59;;;;;;;15.38;13.62;;;;;;;20.49;72.79;99246.37;4447410;32;33848;-64
2022/06/10 04:33:27;;;;;;;16.48;13.40;;;;;;;20.18;74.52;99257.47;4445942;32;32534;-62
2022/06/10 04:35:54;;;;;;;15.45;13.68;;;;;;;19.74;76.56;99259.16;4447126;32;34785;-61
2022/06/10 04:38:22;;;;;;;15.02;13.00;;;;;;;20.35;74.11;99266.25;4443914;32;33884;-62
2022/06/10 04:40:50;;;;;;;16.08;12.55;;;;;;;20.11;74.35;99262.81;4447271;32;33797;-61
2022/06/10 04:43:18;;;;;;;14.27;12.43;;;;;;;20.09;74.24;99262.13;4448009;32;33569;-62
2022/06/10 04:45:48;;;;;;;12.60;10.82;;;;;;;20.31;73.64;99270.37;4448446;32;33435;-62
2022/06/10 04:48:16;;;;;;;13.95;10.93;;;;;;;20.49;72.85;99270.84;4444225;32;33648;-62
2022/06/10 04:50:47;;;;;;;13.40;11.43;;;;;;;20.65;71.40;99269.81;4448312;32;32649;-61
2022/06/10 04:53:15;;;;;;;12.27;10.98;;;;;;;20.54;71.79;99264.84;4444787;32;33172;-62
2022/06/10 04:55:43;;;;;;;13.40;11.48;;;;;;;20.80;70.49;99275.19;4444452;32;33068;-63
2022/06/10 04:58:11;;;;;;;13.38;11.43;;;;;;;20.61;72.07;99269.34;4446142;32;33871;-63
2022/06/10 05:00:42;;;;;;;12.60;10.88;;;;;;;20.63;71.51;99269.13;4448025;32;32675;-64
2022/06/10 05:03:11;;;;;;;17.65;12.50;;;;;;;20.62;71.32;99273.75;4450131;32;35425;-62
2022/06/10 05:05:39;;;;;;;12.40;10.35;;;;;;;20.69;71.12;99277.37;4452150;32;33333;-63
2022/06/10 05:08:08;;;;;;;13.93;10.57;;;;;;;20.93;71.23;99280.78;4449211;32;33623;-63
2022/06/10 05:10:36;;;;;;;12.25;10.55;;;;;;;20.77;71.64;99276.44;4448719;32;32271;-62
2022/06/10 05:13:04;;;;;;;12.85;10.20;;;;;;;20.58;72.58;99291.47;4445888;32;33676;-62
2022/06/10 05:15:31;;;;;;;11.60;9.68;;;;;;;21.01;71.54;99288.81;4444051;32;34691;-62
2022/06/10 05:17:59;;;;;;;11.00;9.85;;;;;;;20.98;70.68;99294.66;4444828;32;33664;-64
2022/06/10 05:20:33;;;;;;;10.77;9.55;;;;;;;20.80;71.47;99292.37;4448421;32;32653;-62
2022/06/10 05:23:04;;;;;;;13.00;10.47;;;;;;;21.16;69.57;99294.22;4448924;32;35014;-63
2022/06/10 05:25:32;;;;;;;13.25;10.98;;;;;;;21.18;69.77;99292.13;4448350;32;33204;-62
2022/06/10 05:28:00;;;;;;;14.32;10.77;;;;;;;21.02;71.49;99295.09;4448974;32;34976;-62
2022/06/10 05:30:30;;;;;;;12.35;10.60;;;;;;;20.90;71.40;99294.78;4449980;32;34457;-63
2022/06/10 05:32:59;;;;;;;13.05;10.50;;;;;;;21.20;70.81;99297.38;4445533;32;33027;-63
2022/06/10 05:35:27;;;;;;;12.27;9.73;;;;;;;21.12;70.46;99301.06;4449612;32;32796;-62
2022/06/10 05:37:55;;;;;;;12.10;10.60;;;;;;;20.74;73.22;99301.28;4446441;32;33997;-61
2022/06/10 05:40:26;;;;;;;13.13;9.45;;;;;;;21.00;72.01;99308.91;4450412;32;33678;-62
2022/06/10 05:42:53;;;;;;;12.30;10.52;;;;;;;20.43;74.43;99317.78;4449739;32;33907;-61
2022/06/10 05:45:21;;;;;;;13.65;10.40;;;;;;;20.68;73.26;99316.50;4447984;32;33196;-62
2022/06/10 05:47:54;;;;;;;14.57;11.60;;;;;;;20.81;73.02;99323.97;4448621;32;32830;-61
2022/06/10 05:50:35;;;;;;;12.48;10.73;;;;;;;20.99;72.89;99323.53;4446411;32;33969;-64
2022/06/10 05:53:06;;;;;;;12.02;10.57;;;;;;;21.29;71.17;99323.44;4447350;32;34195;-64
2022/06/10 05:55:35;;;;;;;12.93;10.65;;;;;;;21.08;70.83;99326.97;4448784;32;33242;-65
2022/06/10 05:58:08;;;;;;;14.68;11.12;;;;;;;20.89;72.07;99333.88;4449502;32;33711;-61
2022/06/10 06:00:36;;;;;;;13.05;10.70;;;;;;;21.04;71.04;99336.56;4448754;32;32980;-63
2022/06/10 06:03:04;;;;;;;13.02;10.77;;;;;;;21.14;70.59;99329.78;4445015;32;34009;-62
2022/06/10 06:05:33;;;;;;;13.98;11.88;;;;;;;21.17;70.38;99340.28;4448724;32;33398;-62
2022/06/10 06:08:01;;;;;;;12.75;10.73;;;;;;;20.95;71.97;99335.84;4449433;32;33802;-62
2022/06/10 06:10:29;;;;;;;13.43;11.23;;;;;;;21.02;71.33;99344.91;4449850;32;33685;-64
2022/06/10 06:12:57;;;;;;;12.40;11.05;;;;;;;20.84;72.45;99349.94;4446986;32;34668;-63
2022/06/10 06:15:24;;;;;;;15.23;12.35;;;;;;;20.96;72.68;99355.72;4445850;32;32995;-62
2022/06/10 06:17:53;;;;;;;14.77;10.95;;;;;;;21.40;69.80;99345.56;4442921;32;33861;-63
2022/06/10 06:20:22;;;;;;;14.13;10.68;;;;;;;21.43;70.81;99352.50;4450792;32;33878;-63
2022/06/10 06:22:50;;;;;;;13.05;10.10;;;;;;;21.46;70.88;99357.56;4449703;32;34914;-63
2022/06/10 06:25:18;;;;;;;12.80;10.13;;;;;;;21.03;71.45;99360.22;4447586;32;33193;-64
2022/06/10 06:27:48;;;;;;;10.73;9.20;;;;;;;21.70;69.40;99345.44;4450733;32;33590;-61
2022/06/10 06:30:22;;;;;;;12.90;10.05;;;;;;;21.48;70.27;99350.06;4449934;32;32577;-64
2022/06/10 06:32:49;;;;;;;11.77;10.40;;;;;;;21.33;71.17;99346.50;4451858;32;33931;-63
2022/06/10 06:35:17;;;;;;;12.43;9.73;;;;;;;21.38;70.95;99358.53;4449319;32;33360;-65
2022/06/10 06:37:45;;;;;;;13.05;9.52;;;;;;;21.57;69.90;99364.34;4450719;32;33624;-62
2022/06/10 06:40:12;;;;;;;11.65;9.48;;;;;;;21.84;70.14;99357.28;4451115;32;34154;-63
2022/06/10 06:42:40;;;;;;;11.95;9.00;;;;;;;21.56;70.21;99371.69;4451529;32;32805;-64
2022/06/10 06:45:09;;;;;;;10.68;8.15;;;;;;;22.27;67.54;99368.09;4448934;32;34494;-64
2022/06/10 06:47:57;;;;;;;11.82;9.27;;;;;;;22.13;67.92;99372.59;4447858;32;34907;-63
2022/06/10 06:50:30;;;;;;;15.38;9.35;;;;;;;22.51;67.08;99369.53;4449394;32;33886;-62
2022/06/10 06:52:57;;;;;;;11.00;8.93;;;;;;;22.79;65.55;99378.50;4448707;32;33855;-63
2022/06/10 06:55:37;;;;;;;10.15;8.70;;;;;;;22.46;67.43;99377.47;4450306;32;33119;-65
2022/06/10 06:58:07;;;;;;;11.60;8.40;;;;;;;22.51;66.25;99380.44;4444657;32;33891;-62
2022/06/10 07:00:34;;;;;;;12.85;8.93;;;;;;;22.67;66.58;99382.00;4450334;32;32843;-63
2022/06/10 07:03:03;;;;;;;12.05;8.50;;;;;;;23.02;65.15;99380.09;4449768;32;33484;-64
2022/06/10 07:05:32;;;;;;;13.35;8.82;;;;;;;22.66;66.41;99381.13;4448259;32;32837;-62
2022/06/10 07:08:00;;;;;;;9.82;8.27;;;;;;;22.71;65.55;99378.66;4451452;32;33520;-63
2022/06/10 07:10:28;;;;;;;10.10;8.55;;;;;;;23.05;65.03;99382.41;4448521;32;32521;-63
2022/06/10 07:12:56;;;;;;;10.80;8.32;;;;;;;23.27;65.30;99380.34;4451523;32;34181;-63
2022/06/10 07:15:24;;;;;;;13.00;7.78;;;;;;;22.96;64.71;99379.00;4447052;32;32233;-61
2022/06/10 07:17:51;;;;;;;10.43;7.57;;;;;;;23.53;63.88;99387.81;4451029;32;33276;-62
2022/06/10 07:20:23;;;;;;;8.95;7.70;;;;;;;23.46;63.01;99379.56;4450163;32;34037;-63
2022/06/10 07:22:50;;;;;;;10.13;7.25;;;;;;;22.97;64.96;99382.56;4447873;32;32185;-63
2022/06/10 07:25:19;;;;;;;10.43;7.70;;;;;;;23.15;63.08;99388.31;4450213;32;32836;-63
2022/06/10 07:27:46;;;;;;;14.87;8.45;;;;;;;23.30;65.16;99388.12;4449843;32;33963;-62
2022/06/10 07:30:16;;;;;;;10.70;7.12;;;;;;;23.31;64.18;99383.56;4449401;32;33981;-63
2022/06/10 07:32:44;;;;;;;8.10;6.95;;;;;;;23.31;62.85;99383.56;4449224;32;32808;-64
2022/06/10 07:35:13;;;;;;;8.88;6.70;;;;;;;23.26;64.97;99381.41;4450109;32;33620;-63
2022/06/10 07:37:40;;;;;;;11.95;6.18;;;;;;;23.71;63.01;99381.75;4446726;32;32673;-62
2022/06/10 07:41:56;;;;;;;7.97;5.47;;;;;;;24.08;63.35;99383.03;4449529;32;36445;-64
2022/06/10 07:43:15;;;;;;;8.48;6.53;;;;;;;23.85;61.99;99380.72;4446900;32;34872;-63
2022/06/10 07:45:43;;;;;;;9.25;6.30;;;;;;;24.20;62.11;99379.66;4449915;32;34896;-63
2022/06/10 07:48:12;;;;;;;8.80;5.90;;;;;;;24.37;61.27;99370.78;4450068;32;33476;-62
2022/06/10 07:50:41;;;;;;;9.60;6.60;;;;;;;24.28;64.00;99383.00;4448792;32;35287;-63
2022/06/10 07:53:09;;;;;;;7.30;5.70;;;;;;;24.13;61.14;99380.47;4449214;32;32621;-64
2022/06/10 07:55:38;;;;;;;7.57;5.87;;;;;;;24.66;59.65;99384.25;4450715;32;33105;-63
2022/06/10 07:58:14;;;;;;;8.65;6.20;;;;;;;24.55;59.93;99383.81;4449865;32;34705;-64
2022/06/10 08:00:42;;;;;;;9.13;5.82;;;;;;;24.72;60.35;99384.22;4448264;32;32274;-63
2022/06/10 08:03:10;;;;;;;11.10;5.55;;;;;;;24.48;60.07;99393.09;4448107;32;34022;-63
2022/06/10 08:05:38;;;;;;;8.95;6.18;;;;;;;24.50;58.41;99386.38;4445554;32;32602;-62
2022/06/10 08:08:08;;;;;;;8.43;5.65;;;;;;;24.90;58.56;99390.87;4448910;32;34844;-63
2022/06/10 08:10:37;;;;;;;9.18;6.15;;;;;;;24.86;59.16;99399.53;4449036;32;34176;-62
2022/06/10 08:13:06;;;;;;;9.45;6.03;;;;;;;24.97;59.30;99395.25;4447485;32;32405;-62
2022/06/10 08:15:34;;;;;;;8.73;6.00;;;;;;;24.56;58.80;99404.66;4442219;32;33159;-63
2022/06/10 08:18:04;;;;;;;8.32;5.68;;;;;;;24.40;58.49;99403.19;4448619;32;33900;-62
2022/06/10 08:23:25;;;;;;;9.68;6.50;;;;;;;24.87;58.84;99406.66;4449327;32;34077;-68
2022/06/10 08:25:53;;;;;;;8.57;5.97;;;;;;;24.58;58.26;99407.19;4450674;32;33644;-65
2022/06/10 08:28:21;;;;;;;9.10;6.78;;;;;;;24.94;58.33;99408.53;4449510;32;33884;-66
2022/06/10 08:30:49;;;;;;;9.95;6.70;;;;;;;24.71;58.15;99409.88;4451371;32;33991;-66
2022/06/10 08:33:17;;;;;;;7.78;6.40;;;;;;;25.04;57.61;99407.06;4447376;32;35180;-65
2022/06/10 08:35:45;;;;;;;10.98;6.50;;;;;;;24.75;58.43;99402.06;4449056;32;33200;-65
2022/06/10 08:38:16;;;;;;;9.73;6.35;;;;;;;24.56;59.18;99410.12;4449015;32;32558;-66
2022/06/10 08:40:52;;;;;;;8.73;6.85;;;;;;;24.79;58.63;99411.56;4449031;32;35050;-65
2022/06/10 08:43:40;;;;;;;9.35;6.20;;;;;;;24.52;58.99;99416.25;4449345;32;34337;-64
2022/06/10 08:46:29;;;;;;;10.98;7.82;;;;;;;24.10;61.17;99421.06;4448937;32;31999;-66
2022/06/10 08:49:24;;;;;;;9.85;6.97;;;;;;;24.69;59.72;99419.34;4446886;32;33759;-63
2022/06/10 08:52:03;;;;;;;13.62;8.15;;;;;;;24.48;60.90;99424.03;4439881;32;35061;-66
2022/06/10 08:54:59;;;;;;;12.85;7.68;;;;;;;24.69;60.09;99425.69;4451006;32;34901;-63
2022/06/10 08:57:35;;;;;;;;;;;;;;;24.67;60.18;99421.47;4446916;32;32888;-67
2022/06/10 09:00:25;;;;;;;9.20;7.70;;;;;;;24.91;59.82;99422.66;4449144;32;35317;-65
2022/06/10 09:03:05;;;;;;;11.52;7.12;;;;;;;24.50;60.76;99429.31;4451143;32;34687;-66
2022/06/10 09:05:40;;;;;;;11.32;7.47;;;;;;;24.37;61.60;99422.75;4451239;32;32853;-65
2022/06/10 09:08:17;;;;;;;10.15;7.75;;;;;;;24.05;61.90;99429.09;4449462;32;31988;-65
2022/06/10 09:10:55;;;;;;;9.77;7.82;;;;;;;24.37;60.59;99432.88;4442730;32;33776;-64
2022/06/10 09:13:39;;;;;;;11.93;7.30;;;;;;;24.25;61.12;99437.28;4449153;32;33687;-64
2022/06/10 09:16:19;;;;;;;11.07;7.43;;;;;;;23.97;62.67;99429.28;4442465;32;34266;-65
2022/06/10 09:18:47;;;;;;;10.35;7.90;;;;;;;24.25;62.56;99431.81;4446451;32;33684;-63
2022/06/10 09:21:40;;;;;;;12.27;7.95;;;;;;;24.24;62.43;99439.19;4448449;32;34623;-65
2022/06/10 09:24:16;;;;;;;9.88;8.25;;;;;;;24.62;61.83;99430.31;4446192;32;35196;-65
2022/06/10 09:26:49;;;;;;;11.63;7.35;;;;;;;24.44;62.63;99433.72;4442861;32;34018;-65
2022/06/10 09:29:16;;;;;;;11.12;7.65;;;;;;;24.29;62.87;99436.63;4448362;32;33458;-65
2022/06/10 09:32:07;;;;;;;10.43;8.05;;;;;;;25.31;59.49;99420.66;4451377;32;33930;-65
2022/06/10 09:34:52;;;;;;;10.68;7.37;;;;;;;25.54;59.66;99433.78;4450409;32;33792;-64
2022/06/10 09:37:26;;;;;;;10.13;8.30;;;;;;;25.59;59.24;99433.16;4448013;32;34099;-66
2022/06/10 09:43:28;;;;;;;9.68;8.18;;;;;;;25.87;58.17;99427.28;4437446;32;34021;-65
2022/06/10 09:46:26;;;;;;;9.35;7.28;;;;;;;26.07;57.85;99429.87;4448043;32;33098;-68
2022/06/10 09:49:19;;;;;;;8.52;6.62;;;;;;;25.89;57.90;99436.13;4445202;32;35061;-67
2022/06/10 09:52:05;;;;;;;12.15;7.22;;;;;;;25.91;58.72;99431.28;4446409;32;32726;-67
2022/06/10 09:54:55;;;;;;;8.45;6.65;;;;;;;26.28;56.13;99431.41;4447967;32;32544;-67
2022/06/10 09:57:53;;;;;;;10.07;6.72;;;;;;;26.53;55.84;99437.75;4448067;32;34695;-63
2022/06/10 10:00:31;;;;;;;9.40;6.12;;;;;;;26.40;56.27;99435.09;4448693;32;33668;-65
2022/06/10 10:03:22;;;;;;;12.98;6.62;;;;;;;26.56;55.66;99430.97;4443686;32;33396;-65
2022/06/10 10:06:12;;;;;;;9.95;5.90;;;;;;;26.87;53.99;99439.09;4447767;32;34826;-65
2022/06/10 10:09:05;;;;;;;9.20;5.97;;;;;;;27.34;54.02;99424.81;4450771;32;32720;-66
2022/06/10 10:11:42;;;;;;;8.52;5.80;;;;;;;27.61;52.86;99434.38;4447766;32;35194;-65
2022/06/10 10:14:17;;;;;;;8.00;5.28;;;;;;;27.27;52.66;99435.03;4449155;32;34515;-65
2022/06/10 10:16:52;;;;;;;7.35;5.28;;;;;;;27.86;53.09;99437.00;4444550;32;33068;-64
2022/06/10 10:19:28;;;;;;;9.45;5.50;;;;;;;27.53;52.45;99440.19;4450000;32;35232;-64
2022/06/10 10:22:11;;;;;;;9.50;6.20;;;;;;;27.80;50.87;99437.06;4448247;32;34028;-65
2022/06/10 10:24:42;;;;;;;9.40;5.72;;;;;;;28.12;50.74;99443.13;4443200;32;33570;-73
2022/06/10 10:27:18;;;;;;;8.73;5.32;;;;;;;27.81;52.27;99439.59;4446212;32;33010;-64
2022/06/10 10:29:49;;;;;;;8.07;5.82;;;;;;;27.76;51.78;99446.84;4442739;32;33649;-62
2022/06/10 10:32:21;;;;;;;8.50;5.62;;;;;;;27.74;51.47;99441.59;4438186;32;32160;-64
2022/06/10 10:34:54;;;;;;;7.37;5.45;;;;;;;27.90;51.18;99448.38;4447462;32;31993;-64
2022/06/10 10:37:29;;;;;;;7.82;5.25;;;;;;;28.14;51.00;99448.41;4441565;32;32126;-64
2022/06/10 10:40:06;;;;;;;8.07;5.30;;;;;;;27.68;51.14;99449.94;4448872;32;34098;-64
2022/06/10 10:42:36;;;;;;;10.13;5.47;;;;;;;28.17;49.99;99443.28;4448340;32;33647;-62
2022/06/10 10:45:06;;;;;;;8.93;5.35;;;;;;;28.14;50.59;99443.75;4449018;32;34606;-63
2022/06/10 10:47:36;;;;;;;7.00;5.00;;;;;;;27.91;50.10;99449.19;4459299;32;33564;-66
2022/06/10 10:50:03;;;;;;;8.35;5.45;;;;;;;27.81;50.21;99442.34;4447078;32;35097;-66
2022/06/10 10:52:34;;;;;;;9.00;5.80;;;;;;;28.29;49.23;99440.53;4443726;32;34940;-64
2022/06/10 10:55:11;;;;;;;8.75;6.12;;;;;;;28.27;51.44;99437.19;4449900;32;32613;-65
2022/06/10 10:57:53;;;;;;;9.23;5.30;;;;;;;27.96;52.42;99435.56;4446881;32;34049;-65
2022/06/10 11:00:21;;;;;;;9.23;5.45;;;;;;;28.64;50.58;99434.25;4445385;32;35244;-65
2022/06/10 11:02:52;;;;;;;8.13;5.28;;;;;;;28.54;50.58;99435.69;4447148;32;34103;-64
2022/06/10 11:05:31;;;;;;;6.05;4.65;;;;;;;28.66;49.69;99432.91;4442084;32;33181;-65
2022/06/10 11:08:05;;;;;;;7.50;5.18;;;;;;;28.19;49.11;99443.06;4451357;32;34130;-64
2022/06/10 11:10:35;;;;;;;7.12;5.10;;;;;;;28.58;48.69;99440.72;4449502;32;35129;-64
2022/06/10 11:13:06;;;;;;;8.48;4.68;;;;;;;28.75;48.37;99436.97;4444530;32;35029;-63
2022/06/10 11:15:34;;;;;;;8.82;5.28;;;;;;;28.29;49.33;99433.12;4450997;32;34147;-64
2022/06/10 11:18:02;;;;;;;7.25;4.80;;;;;;;28.51;49.77;99438.91;4449393;32;33984;-62
2022/06/10 11:20:32;;;;;;;17.05;6.37;;;;;;;28.62;48.20;99433.62;4448451;32;34025;-66
2022/06/10 11:23:24;;;;;;;9.13;5.22;;;;;;;28.75;48.17;99438.91;4442372;32;34526;-64
2022/06/10 11:26:04;;;;;;;8.73;5.25;;;;;;;28.95;47.41;99436.59;4439367;32;31946;-67
2022/06/10 11:28:37;;;;;;;9.15;4.93;;;;;;;28.77;48.79;99432.06;4446375;32;34923;-64
2022/06/10 11:31:17;;;;;;;9.90;5.32;;;;;;;28.69;48.88;99428.84;4449802;32;34042;-66
2022/06/10 11:33:47;;;;;;;7.65;5.03;;;;;;;28.46;49.25;99424.19;4447555;32;33783;-63
2022/06/10 11:36:24;;;;;;;8.10;4.85;;;;;;;28.20;49.29;99423.53;4446922;32;34070;-63
2022/06/10 11:39:05;;;;;;;8.70;5.03;;;;;;;28.41;48.19;99424.91;4448546;32;32508;-64
2022/06/10 11:41:34;;;;;;;7.18;4.97;;;;;;;28.18;48.94;99420.19;4449095;32;34946;-64
2022/06/10 11:44:02;;;;;;;9.18;5.37;;;;;;;28.23;50.04;99420.31;4441708;32;33283;-63
2022/06/10 11:46:38;;;;;;;8.43;5.00;;;;;;;28.45;50.53;99426.09;4444910;32;31981;-63
2022/06/10 11:49:14;;;;;;;8.68;5.15;;;;;;;28.17;49.75;99425.94;4445468;32;35566;-63
2022/06/10 11:52:23;;;;;;;9.00;5.50;;;;;;;28.20;50.24;99426.28;4433566;32;33932;-64
2022/06/10 11:55:12;;;;;;;7.18;5.25;;;;;;;27.95;50.55;99423.72;4412988;32;35226;-65
2022/06/10 12:00:56;;;;;;;7.43;4.95;;;;;;;28.43;48.86;99420.00;4444241;32;34036;-66
2022/06/10 12:03:33;;;;;;;8.55;4.80;;;;;;;28.70;49.59;99405.72;4444817;32;33152;-67
2022/06/10 12:06:03;;;;;;;8.35;4.78;;;;;;;28.53;49.68;99403.72;4448866;32;35047;-63
2022/06/10 12:08:31;;;;;;;10.45;5.40;;;;;;;28.30;50.16;99399.00;4446299;32;33761;-64
2022/06/10 12:11:20;;;;;;;7.40;4.43;;;;;;;27.98;48.22;99395.75;4446140;32;35032;-63